Time;durP1;ratioP1;P1;durP2;ratioP2;P2;SDS_P1;SDS_P2;PMS_P1;PMS_P2;Temp;Humidity;BMP_temperature;BMP_pressure;BME280_temperature;BME280_humidity;BME280_pressure;Samples;Min_cycle;Max_cycle;Signal;HPM_P1;HPM_P2
2022/06/02 00:01:21;;;;;;;9.68;6.88;;;;;;;8.04;100.00;101955.56;5030365;28;20035;-72
2022/06/02 00:03:55;;;;;;;11.02;6.70;;;;;;;8.00;100.00;101950.34;5011989;28;20037;-72
2022/06/02 00:06:45;;;;;;;10.85;6.72;;;;;;;7.99;100.00;101953.00;5012010;28;21894;-72
2022/06/02 00:09:30;;;;;;;9.82;6.85;;;;;;;7.96;100.00;101955.69;5029992;28;20033;-73
2022/06/02 00:12:08;;;;;;;8.95;6.45;;;;;;;7.93;100.00;101959.25;5012893;28;20448;-72
2022/06/02 00:14:36;;;;;;;10.88;7.03;;;;;;;7.91;100.00;101950.50;5031274;28;20036;-72
2022/06/02 00:17:16;;;;;;;12.98;7.45;;;;;;;7.90;100.00;101953.16;5029848;28;20036;-72
2022/06/02 00:20:18;;;;;;;10.38;6.95;;;;;;;7.87;100.00;101954.09;5013361;28;20033;-72
2022/06/02 00:23:21;;;;;;;9.95;6.95;;;;;;;7.84;100.00;101951.50;5025444;28;20163;-72
2022/06/02 00:26:19;;;;;;;10.70;6.68;;;;;;;7.81;100.00;101952.44;5034541;28;20039;-73
2022/06/02 00:29:06;;;;;;;8.75;6.07;;;;;;;7.77;100.00;101950.72;5017787;28;20057;-72
2022/06/02 00:32:14;;;;;;;10.43;6.78;;;;;;;7.77;100.00;101952.47;5022743;28;20044;-72
2022/06/02 00:34:45;;;;;;;9.02;6.55;;;;;;;7.73;100.00;101960.44;5014127;28;20125;-72
2022/06/02 00:37:21;;;;;;;9.80;6.75;;;;;;;7.72;100.00;101965.72;5025948;28;20094;-72
2022/06/02 00:39:49;;;;;;;10.57;6.53;;;;;;;7.68;100.00;101957.00;5018051;28;20151;-72
2022/06/02 00:42:23;;;;;;;11.02;6.38;;;;;;;7.68;100.00;101964.91;5018830;28;20056;-72
2022/06/02 00:45:00;;;;;;;10.95;6.47;;;;;;;7.67;100.00;101959.69;5037841;28;20033;-72
2022/06/02 00:48:06;;;;;;;9.43;6.72;;;;;;;7.65;100.00;101970.25;5034350;28;20037;-72
2022/06/02 00:50:44;;;;;;;10.23;6.20;;;;;;;7.64;100.00;101967.63;4999265;28;20061;-72
2022/06/02 00:53:34;;;;;;;8.30;5.75;;;;;;;7.62;100.00;101967.63;5038083;28;20041;-72
2022/06/02 00:59:28;;;;;;;8.57;6.13;;;;;;;7.59;100.00;101976.44;5026737;28;20029;-72
2022/06/02 01:01:55;;;;;;;9.52;6.28;;;;;;;7.58;100.00;101968.59;5033107;28;20029;-72
2022/06/02 01:04:21;;;;;;;7.72;5.85;;;;;;;7.55;100.00;101973.91;5034418;28;20036;-72
2022/06/02 01:07:27;;;;;;;9.35;5.93;;;;;;;7.51;100.00;101973.06;5002114;28;20041;-72
2022/06/02 01:10:24;;;;;;;9.30;6.35;;;;;;;7.48;100.00;101979.25;4970121;28;20046;-72
2022/06/02 01:12:58;;;;;;;10.77;6.45;;;;;;;7.45;100.00;101973.16;5036801;28;20129;-72
2022/06/02 01:15:34;;;;;;;9.70;6.18;;;;;;;7.44;100.00;101976.69;5033813;28;20123;-72
2022/06/02 01:18:15;;;;;;;9.90;6.10;;;;;;;7.43;100.00;101980.22;5035675;28;20122;-72
2022/06/02 01:20:59;;;;;;;7.85;5.70;;;;;;;7.40;100.00;101986.41;5018166;28;20033;-72
2022/06/02 01:23:34;;;;;;;8.15;6.03;;;;;;;7.41;100.00;101987.28;5034388;28;20056;-72
2022/06/02 01:26:18;;;;;;;11.20;6.97;;;;;;;7.40;100.00;101986.41;5036738;28;20538;-72
2022/06/02 01:28:56;;;;;;;8.60;6.15;;;;;;;7.39;100.00;101989.94;5035928;28;20558;-72
2022/06/02 01:31:37;;;;;;;9.35;5.65;;;;;;;7.37;100.00;101990.84;5032904;28;20044;-72
2022/06/02 01:34:10;;;;;;;9.07;5.15;;;;;;;7.34;100.00;101997.00;5016166;28;20053;-72
2022/06/02 01:36:48;;;;;;;7.20;5.32;;;;;;;7.33;100.00;101992.66;5015816;28;20059;-72
2022/06/02 01:39:55;;;;;;;8.35;5.78;;;;;;;7.31;100.00;101994.44;5033061;28;20488;-72
2022/06/02 01:42:48;;;;;;;5.50;4.70;;;;;;;7.29;100.00;101988.28;5024062;28;20101;-72
2022/06/02 01:45:22;;;;;;;10.02;5.28;;;;;;;7.27;100.00;101995.34;5009634;28;20124;-72
2022/06/02 01:47:57;;;;;;;8.57;5.50;;;;;;;7.26;100.00;101998.88;5032333;28;20558;-72
2022/06/02 01:50:34;;;;;;;8.80;6.13;;;;;;;7.26;100.00;101991.00;5033711;28;20044;-72
2022/06/02 01:52:59;;;;;;;8.38;5.72;;;;;;;7.27;100.00;101995.34;5034336;28;20123;-72
2022/06/02 01:55:46;;;;;;;6.75;4.90;;;;;;;7.26;100.00;101997.13;5013533;28;20126;-72
2022/06/02 01:58:20;;;;;;;10.57;5.82;;;;;;;7.26;100.00;102002.41;5035375;28;20383;-72
2022/06/02 02:00:55;;;;;;;7.47;5.78;;;;;;;7.26;100.00;101997.13;5022644;28;20044;-72
2022/06/02 02:03:48;;;;;;;7.88;5.53;;;;;;;7.26;100.00;101994.50;5016008;28;20212;-72
2022/06/02 02:06:24;;;;;;;7.22;5.45;;;;;;;7.27;100.00;101995.34;5033949;28;20135;-72
2022/06/02 02:09:06;;;;;;;9.30;5.68;;;;;;;7.26;100.00;101994.50;5002506;28;20028;-72
2022/06/02 02:11:44;;;;;;;7.45;5.53;;;;;;;7.27;100.00;101998.88;5024928;28;20029;-72
2022/06/02 02:14:32;;;;;;;7.72;5.72;;;;;;;7.28;100.00;102003.25;5034057;28;20487;-72
2022/06/02 02:17:19;;;;;;;8.05;5.10;;;;;;;7.28;100.00;102003.25;5016246;28;20496;-72
2022/06/02 02:19:45;;;;;;;7.93;5.38;;;;;;;7.26;100.00;101999.78;5024239;28;20040;-72
2022/06/02 02:22:28;;;;;;;7.95;5.72;;;;;;;7.26;100.00;101999.78;5035048;28;20427;-72
2022/06/02 02:25:00;;;;;;;7.13;4.90;;;;;;;7.25;100.00;101998.00;5014910;28;20025;-72
2022/06/02 02:27:28;;;;;;;6.50;5.00;;;;;;;7.23;100.00;101996.31;5014342;28;20040;-72
2022/06/02 02:30:00;;;;;;;9.20;5.70;;;;;;;7.22;100.00;102007.72;5033085;28;20032;-72
2022/06/02 02:32:44;;;;;;;7.57;5.28;;;;;;;7.19;100.00;101998.97;5013115;28;20036;-72
2022/06/02 02:35:19;;;;;;;7.95;5.32;;;;;;;7.17;100.00;102000.75;5030729;28;20055;-72
2022/06/02 02:37:55;;;;;;;6.85;5.65;;;;;;;7.16;100.00;101998.13;5025164;28;20159;-72
2022/06/02 02:40:32;;;;;;;8.57;5.43;;;;;;;7.15;100.00;102006.94;5015535;28;20739;-72
2022/06/02 02:43:06;;;;;;;6.85;5.32;;;;;;;7.13;100.00;101992.91;5031219;28;20112;-72
2022/06/02 02:46:06;;;;;;;7.05;5.60;;;;;;;7.12;100.00;101999.94;5032963;28;20446;-72
2022/06/02 02:48:59;;;;;;;8.23;5.72;;;;;;;7.10;100.00;101988.56;5014745;28;20039;-72
2022/06/02 02:51:24;;;;;;;7.20;5.05;;;;;;;7.09;100.00;101996.47;5030560;28;20063;-73
2022/06/02 02:53:54;;;;;;;9.18;5.72;;;;;;;7.08;100.00;101992.94;5014593;28;20732;-72
2022/06/02 02:56:38;;;;;;;8.75;5.43;;;;;;;7.05;100.00;101979.84;5031874;28;20029;-72
2022/06/02 02:59:31;;;;;;;6.78;5.10;;;;;;;7.05;100.00;101987.75;5031974;28;20037;-72
2022/06/02 03:02:05;;;;;;;7.82;5.43;;;;;;;7.03;100.00;101986.91;5023092;28;20041;-72
2022/06/02 03:04:45;;;;;;;8.43;5.65;;;;;;;7.01;100.00;101988.66;5009986;28;20527;-72
2022/06/02 03:07:10;;;;;;;7.28;5.32;;;;;;;7.00;100.00;101989.53;5013757;28;20699;-71
2022/06/02 03:09:52;;;;;;;7.03;5.38;;;;;;;6.98;100.00;101991.34;5033718;28;20037;-71
2022/06/02 03:12:24;;;;;;;10.07;5.68;;;;;;;6.99;100.00;101982.53;5005716;28;20568;-71
2022/06/02 03:15:07;;;;;;;6.03;4.97;;;;;;;6.99;100.00;101993.97;5033005;28;20087;-71
2022/06/02 03:17:43;;;;;;;9.23;5.22;;;;;;;7.00;100.00;101992.19;5007111;28;20055;-72
2022/06/02 03:20:17;;;;;;;8.32;5.82;;;;;;;7.01;100.00;101993.91;5030959;28;20134;-71
2022/06/02 03:23:00;;;;;;;7.75;5.03;;;;;;;7.02;100.00;101993.91;5019001;28;20060;-71
2022/06/02 03:25:34;;;;;;;7.55;5.10;;;;;;;7.03;100.00;101998.28;5028730;28;20045;-71
2022/06/02 03:28:34;;;;;;;11.50;5.60;;;;;;;7.05;100.00;101995.63;5010475;28;20030;-71
2022/06/02 03:31:21;;;;;;;6.85;4.80;;;;;;;7.06;100.00;101997.38;5010027;28;20151;-71
2022/06/02 03:34:02;;;;;;;8.88;4.93;;;;;;;7.07;100.00;102004.38;5012836;28;20037;-71
2022/06/02 03:37:01;;;;;;;6.65;5.05;;;;;;;7.05;100.00;102001.78;5023721;28;21350;-70
2022/06/02 03:39:43;;;;;;;7.82;4.72;;;;;;;7.05;100.00;102003.53;5021232;28;20047;-70
2022/06/02 03:42:18;;;;;;;7.65;4.60;;;;;;;7.06;100.00;102010.53;5010425;28;20033;-72
2022/06/02 03:45:31;;;;;;;6.60;4.82;;;;;;;7.06;100.00;102010.53;5026489;28;20065;-72
2022/06/02 03:48:05;;;;;;;5.75;4.60;;;;;;;7.06;100.00;102013.19;4988021;28;20041;-72
2022/06/02 03:50:39;;;;;;;7.35;4.68;;;;;;;7.07;100.00;102014.91;5017824;28;20251;-72
2022/06/02 03:53:15;;;;;;;5.93;4.82;;;;;;;7.09;100.00;102018.41;5027422;28;20033;-72
2022/06/02 03:56:01;;;;;;;5.72;4.72;;;;;;;7.12;100.00;102015.72;5008592;28;20043;-72
2022/06/02 03:58:44;;;;;;;6.78;4.65;;;;;;;7.15;100.00;102017.47;5009763;28;20049;-71
2022/06/02 04:01:12;;;;;;;7.45;4.50;;;;;;;7.16;100.00;102019.19;4992714;28;20112;-72
2022/06/02 04:03:58;;;;;;;5.97;4.85;;;;;;;7.18;100.00;102015.66;4996588;28;20104;-71
2022/06/02 04:06:37;;;;;;;7.07;4.78;;;;;;;7.20;100.00;102026.19;5029696;28;20072;-72
2022/06/02 04:09:38;;;;;;;6.03;4.70;;;;;;;7.21;100.00;102022.66;5013557;28;20140;-72
2022/06/02 04:15:19;;;;;;;8.25;4.95;;;;;;;7.26;100.00;102035.78;5014224;28;20041;-72
2022/06/02 04:17:48;;;;;;;5.53;4.50;;;;;;;7.29;100.00;102030.44;5017578;28;20044;-72
2022/06/02 04:20:35;;;;;;;7.22;4.82;;;;;;;7.31;100.00;102034.81;5019075;28;20057;-71
2022/06/02 04:23:37;;;;;;;7.60;4.50;;;;;;;7.37;100.00;102033.00;5035128;28;20080;-71
2022/06/02 04:26:29;;;;;;;6.20;4.63;;;;;;;7.41;100.00;102035.56;4962227;28;20074;-72
2022/06/02 04:29:01;;;;;;;7.78;4.97;;;;;;;7.46;100.00;102044.28;4931593;28;20058;-72
2022/06/02 04:31:29;;;;;;;5.88;4.28;;;;;;;7.51;100.00;102044.22;4946999;28;20050;-72
2022/06/02 04:34:25;;;;;;;6.13;4.38;;;;;;;7.57;100.00;102041.50;4947899;28;20077;-72
2022/06/02 04:36:51;;;;;;;6.45;4.32;;;;;;;7.64;100.00;102036.16;4965317;28;20671;-72
2022/06/02 04:39:43;;;;;;;7.00;4.68;;;;;;;7.72;100.00;102045.69;4965749;28;20374;-72
2022/06/02 04:42:40;;;;;;;8.82;4.75;;;;;;;7.83;100.00;102047.28;4957455;28;20146;-72
2022/06/02 04:45:08;;;;;;;6.93;4.65;;;;;;;7.91;100.00;102042.81;4951133;28;21372;-71
2022/06/02 04:47:55;;;;;;;9.73;4.32;;;;;;;7.98;100.00;102044.44;4958501;28;20138;-71
2022/06/02 04:50:39;;;;;;;5.47;4.20;;;;;;;8.07;100.00;102051.31;4967092;28;20030;-72
2022/06/02 04:53:23;;;;;;;4.90;3.85;;;;;;;8.17;100.00;102044.13;4964098;28;20081;-72
2022/06/02 04:56:07;;;;;;;8.05;4.13;;;;;;;8.25;100.00;102054.56;4957941;28;20066;-72
2022/06/02 04:58:38;;;;;;;4.95;4.07;;;;;;;8.32;100.00;102053.56;4957910;28;20596;-72
2022/06/02 05:01:07;;;;;;;5.03;3.92;;;;;;;8.44;100.00;102057.78;5010743;28;20052;-72
2022/06/02 05:03:35;;;;;;;6.60;4.53;;;;;;;8.55;100.00;102058.50;5037546;28;20498;-72
2022/06/02 05:06:30;;;;;;;5.70;3.95;;;;;;;8.69;100.00;102060.91;5036129;28;20178;-71
2022/06/02 05:09:03;;;;;;;6.13;4.22;;;;;;;8.92;100.00;102069.28;5018005;28;20110;-72
2022/06/02 05:11:29;;;;;;;5.07;3.95;;;;;;;9.22;100.00;102064.31;5019915;28;20497;-72
2022/06/02 05:14:13;;;;;;;6.68;3.90;;;;;;;9.52;100.00;102061.94;5037763;28;20028;-72
2022/06/02 05:16:50;;;;;;;5.22;3.13;;;;;;;9.83;100.00;102073.59;5037602;28;20520;-72
2022/06/02 05:19:53;;;;;;;4.13;3.30;;;;;;;10.11;100.00;102067.66;5020455;28;20175;-72
2022/06/02 05:22:19;;;;;;;4.05;3.30;;;;;;;10.35;100.00;102079.44;5037808;28;20515;-72
2022/06/02 05:25:12;;;;;;;4.53;3.58;;;;;;;10.57;100.00;102084.25;5038155;28;20061;-72
2022/06/02 05:27:50;;;;;;;3.78;2.97;;;;;;;10.72;100.00;102078.53;5037327;28;20702;-72
2022/06/02 05:30:36;;;;;;;4.25;3.25;;;;;;;10.93;100.00;102081.50;5037925;28;20052;-72
2022/06/02 05:33:28;;;;;;;3.65;2.47;;;;;;;11.15;100.00;102080.91;5011727;28;20043;-72
2022/06/02 05:36:31;;;;;;;2.67;2.47;;;;;;;11.39;100.00;102089.09;5038956;28;20036;-72
2022/06/02 05:39:18;;;;;;;2.83;2.30;;;;;;;11.62;100.00;102093.72;5019848;28;20036;-72
2022/06/02 05:42:06;;;;;;;3.22;2.30;;;;;;;11.79;100.00;102087.03;5032351;28;20387;-73
2022/06/02 05:44:50;;;;;;;2.45;2.17;;;;;;;11.94;100.00;102091.84;5039051;28;20036;-73
2022/06/02 05:47:27;;;;;;;3.25;2.53;;;;;;;12.17;100.00;102089.41;5032083;28;20511;-72
2022/06/02 05:50:29;;;;;;;2.80;2.40;;;;;;;12.37;100.00;102104.72;5032010;28;20044;-72
2022/06/02 05:53:16;;;;;;;2.35;2.15;;;;;;;12.56;100.00;102101.41;5017906;28;20484;-73
2022/06/02 05:56:14;;;;;;;3.47;2.20;;;;;;;12.77;99.75;102098.03;5019034;28;20025;-73
2022/06/02 05:59:06;;;;;;;2.63;2.25;;;;;;;12.98;97.50;102106.19;5019148;28;20060;-73
2022/06/02 06:01:32;;;;;;;3.75;2.20;;;;;;;13.10;96.93;102110.19;5036857;28;20104;-73
2022/06/02 06:04:19;;;;;;;3.22;2.42;;;;;;;13.28;97.73;102115.75;5001583;28;20043;-74
2022/06/02 06:06:55;;;;;;;2.65;2.30;;;;;;;13.46;97.28;102113.38;5035861;28;20036;-75
2022/06/02 06:09:48;;;;;;;3.20;2.13;;;;;;;13.67;96.75;102109.03;5010499;28;20106;-75
2022/06/02 06:12:13;;;;;;;3.65;1.98;;;;;;;13.90;95.86;102108.13;5037799;28;20530;-75
2022/06/02 06:14:50;;;;;;;1.75;1.52;;;;;;;14.04;94.92;102114.69;5038336;28;20086;-75
2022/06/02 06:17:39;;;;;;;2.53;1.80;;;;;;;14.15;93.46;102114.28;4995390;28;20072;-76
2022/06/02 06:20:12;;;;;;;2.22;1.45;;;;;;;14.24;92.52;102117.44;5038362;28;20029;-75
2022/06/02 06:22:48;;;;;;;1.95;1.50;;;;;;;14.37;90.88;102120.47;5005899;28;20065;-79
2022/06/02 06:25:18;;;;;;;1.30;1.20;;;;;;;14.52;91.17;102118.97;5019397;28;20045;-78
2022/06/02 06:27:47;;;;;;;1.00;0.90;;;;;;;14.63;89.58;102126.50;4992096;28;20578;-80
2022/06/02 06:30:41;;;;;;;1.23;1.13;;;;;;;14.60;87.51;102120.44;5033131;28;20029;-78
2022/06/02 06:33:16;;;;;;;1.38;0.90;;;;;;;14.67;88.89;102121.91;5039384;28;20040;-78
2022/06/02 06:35:54;;;;;;;0.80;0.80;;;;;;;14.74;87.87;102122.53;5027073;28;20045;-80
2022/06/02 06:38:31;;;;;;;1.00;0.90;;;;;;;14.85;87.37;102130.06;5018555;28;20033;-84
2022/06/02 06:41:08;;;;;;;0.85;0.85;;;;;;;14.99;86.93;102125.00;5035269;28;20584;-80
2022/06/02 06:43:49;;;;;;;1.65;1.17;;;;;;;15.19;87.35;102125.91;5021082;28;20045;-80
2022/06/02 06:46:20;;;;;;;0.80;0.80;;;;;;;15.33;87.36;102131.53;5031872;28;20056;-78
2022/06/02 06:49:02;;;;;;;0.88;0.88;;;;;;;15.48;85.40;102129.09;5039892;28;20427;-81
2022/06/02 06:51:54;;;;;;;1.10;1.00;;;;;;;15.66;85.70;102132.72;5049622;28;20097;-80
2022/06/02 06:54:38;;;;;;;1.52;1.10;;;;;;;15.78;83.66;102133.94;4992383;28;20162;-80
2022/06/02 06:57:32;;;;;;;2.42;1.05;;;;;;;15.81;83.70;102141.81;5023156;28;20053;-79
2022/06/02 07:00:19;;;;;;;2.30;0.88;;;;;;;15.72;80.35;102147.56;5019465;28;20120;-81
2022/06/02 07:02:48;;;;;;;0.80;0.80;;;;;;;15.54;82.69;102151.94;5022935;28;20041;-81
2022/06/02 07:05:33;;;;;;;0.77;0.77;;;;;;;15.33;82.54;102146.66;5031723;28;20029;-81
2022/06/02 07:08:52;;;;;;;0.80;0.80;;;;;;;15.13;77.60;102144.84;5030255;28;20041;-81
2022/06/02 07:14:22;;;;;;;1.67;0.90;;;;;;;15.38;83.00;102141.09;5013266;28;20041;-80
2022/06/02 07:16:55;;;;;;;0.90;0.90;;;;;;;15.57;82.83;102144.66;5013253;28;20055;-81
2022/06/02 07:19:39;;;;;;;2.35;1.10;;;;;;;15.81;79.94;102156.94;5031668;28;20048;-80
2022/06/02 07:22:12;;;;;;;1.27;1.00;;;;;;;15.98;80.06;102154.41;5043319;28;20037;-83
2022/06/02 07:25:07;;;;;;;1.02;0.90;;;;;;;15.98;77.94;102154.41;5046962;28;20118;-81
2022/06/02 07:27:44;;;;;;;1.33;1.02;;;;;;;16.08;79.28;102165.47;5031654;28;20115;-81
2022/06/02 07:30:31;;;;;;;1.10;1.00;;;;;;;16.17;79.53;102163.31;5038601;28;20036;-80
2022/06/02 07:33:21;;;;;;;1.23;0.90;;;;;;;16.36;77.26;102169.50;5037967;28;20095;-80
2022/06/02 07:35:57;;;;;;;1.05;0.90;;;;;;;16.42;72.44;102174.56;5036633;28;21537;-84
2022/06/02 07:38:44;;;;;;;1.33;0.90;;;;;;;16.21;72.02;102178.25;5029975;28;20105;-78
2022/06/02 07:41:22;;;;;;;0.80;0.80;;;;;;;15.94;74.66;102178.63;5025592;28;20041;-76
2022/06/02 07:44:14;;;;;;;1.20;0.95;;;;;;;15.95;77.93;102185.72;5041289;28;20040;-75
2022/06/02 07:47:09;;;;;;;0.77;0.77;;;;;;;16.23;77.38;102189.75;5036603;28;20051;-71
2022/06/02 07:49:56;;;;;;;1.10;1.00;;;;;;;16.53;76.75;102186.50;5033808;28;20073;-71
2022/06/02 07:52:47;;;;;;;1.20;1.10;;;;;;;16.36;74.86;102185.53;5019448;28;20807;-72
2022/06/02 07:55:18;;;;;;;1.30;0.93;;;;;;;16.15;77.11;102179.41;5019315;28;20032;-71
2022/06/02 07:57:47;;;;;;;1.15;1.05;;;;;;;16.21;77.58;102183.59;5019149;28;20033;-72
2022/06/02 08:00:21;;;;;;;1.05;0.90;;;;;;;16.32;76.65;102177.72;5034608;28;20130;-71
2022/06/02 08:03:08;;;;;;;1.25;0.95;;;;;;;16.49;72.54;102177.78;5018525;28;20083;-72
2022/06/02 08:05:33;;;;;;;0.90;0.90;;;;;;;16.53;76.54;102187.38;5009703;28;20040;-71
2022/06/02 08:08:03;;;;;;;4.38;0.90;;;;;;;16.52;75.09;102180.28;5036652;28;20028;-71
2022/06/02 08:10:52;;;;;;;2.53;1.08;;;;;;;16.34;74.75;102186.56;5024352;28;20060;-71
2022/06/02 08:13:33;;;;;;;2.05;1.00;;;;;;;16.10;74.05;102182.31;5028174;28;20060;-72
2022/06/02 08:16:12;;;;;;;0.85;0.82;;;;;;;15.83;73.84;102187.97;5009540;28;20033;-72
2022/06/02 08:18:38;;;;;;;3.80;1.02;;;;;;;15.82;75.34;102196.94;5014185;28;20040;-71
2022/06/02 08:21:16;;;;;;;2.95;0.90;;;;;;;16.04;75.06;102192.41;5038345;28;20650;-71
2022/06/02 08:23:57;;;;;;;0.90;0.90;;;;;;;16.20;75.21;102196.09;5031483;28;20045;-71
2022/06/02 08:26:38;;;;;;;1.25;1.08;;;;;;;16.31;74.44;102200.03;5035149;28;20041;-72
2022/06/02 08:29:09;;;;;;;2.22;0.90;;;;;;;16.21;75.20;102210.31;5017752;28;21513;-71
2022/06/02 08:31:44;;;;;;;2.45;1.10;;;;;;;16.07;75.53;102201.16;5015245;28;20037;-71
2022/06/02 08:34:18;;;;;;;1.98;1.00;;;;;;;16.25;76.70;102198.53;5015718;28;20136;-71
2022/06/02 08:36:54;;;;;;;1.15;0.80;;;;;;;16.48;74.66;102193.88;4964855;28;20096;-71
2022/06/02 08:39:49;;;;;;;1.10;1.00;;;;;;;16.79;74.36;102205.72;5016180;28;20192;-71
2022/06/02 08:42:54;;;;;;;1.10;0.98;;;;;;;16.58;73.55;102205.88;5031552;28;20663;-71
2022/06/02 08:45:52;;;;;;;1.15;1.00;;;;;;;16.25;73.06;102217.25;5015655;28;20043;-71
2022/06/02 08:48:34;;;;;;;1.30;1.00;;;;;;;16.05;75.31;102213.72;4982402;28;20042;-71
2022/06/02 08:51:27;;;;;;;1.40;0.85;;;;;;;16.09;73.47;102218.00;4990591;28;20041;-71
2022/06/02 08:53:52;;;;;;;;;;;;;;;16.11;72.43;102229.47;5033497;28;20097;-71
2022/06/02 08:56:25;;;;;;;0.70;0.70;;;;;;;16.24;75.97;102223.53;5031612;28;20390;-71
2022/06/02 08:58:50;;;;;;;;;;;;;;;16.47;71.99;102232.25;5017473;28;20030;-71
2022/06/02 09:01:34;;;;;;;1.27;0.90;;;;;;;16.87;75.16;102222.25;5017098;28;20174;-72
2022/06/02 09:04:18;;;;;;;0.98;0.90;;;;;;;17.16;74.75;102232.44;5021151;28;20042;-72
2022/06/02 09:07:08;;;;;;;0.85;0.85;;;;;;;17.10;76.30;102230.94;5019379;28;20041;-71
2022/06/02 09:09:34;;;;;;;0.98;0.80;;;;;;;16.87;75.03;102230.28;5018750;28;20120;-72
2022/06/02 09:12:18;;;;;;;0.73;0.73;;;;;;;16.69;72.39;102230.25;5034729;28;20041;-72
2022/06/02 09:15:21;;;;;;;2.45;1.00;;;;;;;16.60;73.94;102241.41;5020352;28;20069;-72
2022/06/02 09:18:25;;;;;;;0.90;0.90;;;;;;;16.61;71.23;102235.09;5000751;28;20072;-72
2022/06/02 09:21:06;;;;;;;0.70;0.70;;;;;;;16.80;75.07;102232.41;5000693;28;20037;-71
2022/06/02 09:23:47;;;;;;;1.23;1.00;;;;;;;16.96;73.03;102231.63;5035681;28;20083;-72
2022/06/02 09:26:24;;;;;;;1.17;0.98;;;;;;;16.93;74.33;102234.44;5020780;28;20033;-72
2022/06/02 09:28:59;;;;;;;1.10;0.98;;;;;;;17.05;73.47;102244.56;5020228;28;20387;-72
2022/06/02 09:31:43;;;;;;;1.52;1.00;;;;;;;17.14;71.10;102248.56;5019195;28;20036;-72
2022/06/02 09:34:27;;;;;;;0.70;0.70;;;;;;;17.32;72.40;102248.59;5019509;28;20044;-72
2022/06/02 09:37:22;;;;;;;0.85;0.75;;;;;;;17.38;71.04;102251.78;5018274;28;20191;-72
2022/06/02 09:40:19;;;;;;;1.35;0.80;;;;;;;17.73;69.74;102258.91;4978867;28;20188;-71
2022/06/02 09:43:22;;;;;;;1.30;0.90;;;;;;;17.66;69.85;102252.16;5034645;28;20138;-72
2022/06/02 09:46:12;;;;;;;0.80;0.80;;;;;;;17.37;68.34;102263.44;5036776;28;20120;-73
2022/06/02 09:49:10;;;;;;;1.25;1.00;;;;;;;17.08;70.18;102264.94;5026252;28;20041;-72
2022/06/02 09:51:58;;;;;;;1.70;1.38;;;;;;;17.23;71.69;102269.50;5044433;28;20776;-72
2022/06/02 09:54:41;;;;;;;1.00;0.90;;;;;;;17.61;71.95;102262.25;5012176;28;20046;-72
2022/06/02 10:00:20;;;;;;;0.90;0.90;;;;;;;17.68;68.80;102270.81;5047752;28;20044;-74
2022/06/02 10:03:01;;;;;;;1.38;0.98;;;;;;;17.56;68.87;102266.97;5021739;28;20087;-74
2022/06/02 10:05:42;;;;;;;1.17;1.08;;;;;;;17.51;69.83;102270.78;5025463;28;20045;-74
2022/06/02 10:08:19;;;;;;;1.58;1.00;;;;;;;17.41;70.03;102277.53;5025069;28;20041;-74
2022/06/02 10:10:58;;;;;;;1.08;0.93;;;;;;;17.29;70.30;102271.00;5016456;28;20041;-74
2022/06/02 10:13:29;;;;;;;1.63;1.20;;;;;;;17.14;71.08;102278.00;5021559;28;20056;-74
2022/06/02 10:16:23;;;;;;;2.20;1.00;;;;;;;16.99;69.47;102284.09;5018520;28;20476;-72
2022/06/02 10:19:26;;;;;;;0.90;0.80;;;;;;;16.86;69.85;102279.38;5013559;28;21133;-73
2022/06/02 10:22:21;;;;;;;1.15;1.05;;;;;;;16.77;70.21;102286.03;5014609;28;20061;-73
2022/06/02 10:25:11;;;;;;;1.88;1.00;;;;;;;16.68;70.25;102273.97;5017819;28;20179;-72
2022/06/02 10:27:37;;;;;;;1.83;0.95;;;;;;;16.63;72.21;102278.69;5041096;28;20044;-72
2022/06/02 10:30:41;;;;;;;2.13;1.20;;;;;;;16.52;70.75;102279.19;5020836;28;20029;-72
2022/06/02 10:33:06;;;;;;;;;;;;;;;16.37;70.07;102275.47;5045877;28;20088;-71
2022/06/02 10:35:59;;;;;;;1.15;1.05;;;;;;;16.28;72.62;102278.53;5038554;28;20093;-71
2022/06/02 10:38:28;;;;;;;1.20;1.10;;;;;;;16.54;73.05;102277.31;5038966;28;20040;-72
2022/06/02 10:41:00;;;;;;;3.53;1.10;;;;;;;16.76;72.81;102268.25;5038989;28;20399;-71
2022/06/02 10:43:44;;;;;;;1.42;1.10;;;;;;;17.05;73.41;102273.13;5038464;28;20056;-71
2022/06/02 10:46:10;;;;;;;1.13;1.02;;;;;;;17.13;71.71;102276.28;5040285;28;20044;-72
2022/06/02 10:49:07;;;;;;;0.90;0.90;;;;;;;16.97;70.64;102270.81;5038874;28;20037;-71
2022/06/02 10:51:41;;;;;;;1.80;0.90;;;;;;;16.85;71.70;102274.97;5027081;28;20031;-71
2022/06/02 10:54:50;;;;;;;1.00;1.00;;;;;;;16.86;70.75;102273.13;5020355;28;20535;-72
2022/06/02 10:57:50;;;;;;;0.75;0.75;;;;;;;16.92;70.96;102273.72;5020086;28;20277;-72
2022/06/02 11:00:31;;;;;;;0.80;0.80;;;;;;;16.86;70.03;102270.47;5051581;28;21421;-72
2022/06/02 11:03:21;;;;;;;0.90;0.90;;;;;;;16.79;70.44;102276.09;5029362;28;21529;-72
2022/06/02 11:06:06;;;;;;;1.35;0.95;;;;;;;16.79;71.51;102277.94;5037627;28;20131;-72
2022/06/02 11:08:59;;;;;;;2.78;1.10;;;;;;;16.73;70.13;102276.44;5041581;28;20534;-72
2022/06/02 11:11:37;;;;;;;;;;;;;;;16.70;67.93;102281.91;5043328;28;20083;-72
2022/06/02 11:14:26;;;;;;;0.90;0.90;;;;;;;16.68;70.91;102279.31;5037386;28;20003;-72
2022/06/02 11:17:17;;;;;;;1.20;1.10;;;;;;;16.80;71.05;102277.00;5016856;28;20640;-73
2022/06/02 11:20:21;;;;;;;1.65;1.10;;;;;;;16.92;71.19;102273.72;5042558;28;20032;-72
2022/06/02 11:23:08;;;;;;;1.45;1.20;;;;;;;16.88;70.25;102271.28;4999287;28;20108;-73
2022/06/02 11:25:44;;;;;;;1.70;1.00;;;;;;;16.99;71.59;102268.06;5033838;28;20045;-73
2022/06/02 11:28:31;;;;;;;2.45;1.05;;;;;;;17.07;71.09;102269.44;4997003;28;20037;-74
2022/06/02 11:31:19;;;;;;;1.27;0.95;;;;;;;17.15;69.61;102254.81;5031350;28;20511;-73
2022/06/02 11:33:51;;;;;;;1.02;0.95;;;;;;;17.10;70.27;102261.25;5028262;28;20882;-73
2022/06/02 11:36:42;;;;;;;1.15;1.05;;;;;;;17.05;68.93;102249.06;5022650;28;20076;-73
2022/06/02 11:39:17;;;;;;;3.92;1.45;;;;;;;17.09;71.33;102256.84;5022979;28;20083;-77
2022/06/02 11:41:52;;;;;;;11.10;2.42;;;;;;;17.10;70.63;102260.38;5007734;28;20033;-75
2022/06/02 11:44:40;;;;;;;2.88;1.35;;;;;;;16.94;68.90;102260.28;5025003;28;20078;-71
2022/06/02 11:47:50;;;;;;;5.38;1.58;;;;;;;16.88;70.18;102256.06;5030263;28;20648;-74
2022/06/02 11:50:48;;;;;;;4.05;1.02;;;;;;;16.92;69.46;102257.66;5019002;28;20032;-79
2022/06/02 11:53:48;;;;;;;1.80;1.13;;;;;;;16.83;70.49;102253.63;5031345;28;20052;-78
2022/06/02 11:56:20;;;;;;;1.75;1.00;;;;;;;16.94;71.83;102254.91;5010926;28;20205;-79
2022/06/02 11:59:10;;;;;;;2.88;1.10;;;;;;;16.90;70.14;102256.88;5022251;28;20064;-80
2022/06/02 12:02:00;;;;;;;2.08;1.00;;;;;;;16.82;69.84;102251.03;5021957;28;20037;-83
2022/06/02 12:04:37;;;;;;;1.45;1.00;;;;;;;16.70;69.97;102250.72;5028349;28;20519;-84
2022/06/02 12:07:12;;;;;;;1.55;1.00;;;;;;;16.78;69.22;102244.97;5019290;28;20068;-75
2022/06/02 12:09:59;;;;;;;0.90;0.90;;;;;;;17.01;70.73;102248.31;5011217;28;20033;-77
2022/06/02 12:12:41;;;;;;;1.70;0.90;;;;;;;17.33;70.43;102250.31;5030184;28;20029;-79
2022/06/02 12:15:29;;;;;;;0.90;0.90;;;;;;;17.31;69.63;102244.16;5011410;28;20577;-75
2022/06/02 12:18:13;;;;;;;0.90;0.90;;;;;;;17.27;70.01;102250.63;5029101;28;20025;-75
2022/06/02 12:21:03;;;;;;;0.80;0.80;;;;;;;17.26;69.58;102248.91;5028140;28;20036;-76
2022/06/02 12:24:27;;;;;;;1.02;0.90;;;;;;;17.18;69.85;102247.50;5026388;28;20057;-76
2022/06/02 12:26:55;;;;;;;2.28;1.00;;;;;;;17.10;69.99;102242.53;4934644;28;20573;-76
2022/06/02 12:29:36;;;;;;;2.20;0.98;;;;;;;17.02;69.73;102241.16;4933144;28;20043;-75
2022/06/02 12:32:26;;;;;;;1.20;1.08;;;;;;;17.10;70.57;102237.16;4986727;28;21433;-76
2022/06/02 12:35:22;;;;;;;1.08;1.00;;;;;;;17.12;68.32;102247.81;5027751;28;20514;-76
2022/06/02 12:38:00;;;;;;;1.27;1.17;;;;;;;17.00;69.25;102248.38;5016621;28;20041;-76
2022/06/02 12:40:30;;;;;;;0.88;0.88;;;;;;;16.87;69.86;102249.00;5015402;28;20495;-77
2022/06/02 12:43:14;;;;;;;0.98;0.98;;;;;;;16.76;70.03;102238.84;5017081;28;20033;-74
2022/06/02 12:46:01;;;;;;;1.08;1.00;;;;;;;16.70;69.53;102252.50;5012686;28;20045;-72
2022/06/02 12:48:38;;;;;;;2.10;1.05;;;;;;;16.57;70.00;102249.59;5015171;28;20037;-70